sensor_id;sensor_type;location;lat;lon;timestamp;pressure;altitude;pressure_sealevel;temperature;humidity
62789;BME280;48826;42.016;21.454;2022-12-04T00:02:07;99024.59;;;26.57;29.48
62789;BME280;48826;42.016;21.454;2022-12-04T00:04:32;99023.25;;;26.59;28.91
62789;BME280;48826;42.016;21.454;2022-12-04T00:06:58;99026.19;;;26.58;29.73
62789;BME280;48826;42.016;21.454;2022-12-04T00:09:23;99033.41;;;26.57;29.48
62789;BME280;48826;42.016;21.454;2022-12-04T00:11:49;99027.81;;;26.53;28.94
62789;BME280;48826;42.016;21.454;2022-12-04T00:14:14;99029.44;;;26.55;29.08
62789;BME280;48826;42.016;21.454;2022-12-04T00:16:40;99023.31;;;26.54;28.65
62789;BME280;48826;42.016;21.454;2022-12-04T00:19:05;99027.81;;;26.53;29.57
62789;BME280;48826;42.016;21.454;2022-12-04T00:21:31;99022.53;;;26.48;28.99
62789;BME280;48826;42.016;21.454;2022-12-04T00:23:56;99029.19;;;26.51;29.21
62789;BME280;48826;42.016;21.454;2022-12-04T00:26:24;99031.03;;;26.56;29.30
62789;BME280;48826;42.016;21.454;2022-12-04T00:28:50;99016.09;;;26.55;28.78
62789;BME280;48826;42.016;21.454;2022-12-04T00:31:21;99022.47;;;26.53;28.65
62789;BME280;48826;42.016;21.454;2022-12-04T00:33:47;99010.75;;;26.49;28.16
62789;BME280;48826;42.016;21.454;2022-12-04T00:36:15;98995.34;;;26.36;29.02
62789;BME280;48826;42.016;21.454;2022-12-04T00:38:41;99028.09;;;26.52;28.56
62789;BME280;48826;42.016;21.454;2022-12-04T00:41:09;99028.38;;;26.50;28.46
62789;BME280;48826;42.016;21.454;2022-12-04T00:43:35;99020.88;;;26.52;28.90
62789;BME280;48826;42.016;21.454;2022-12-04T00:46:00;99018.75;;;26.55;28.36
62789;BME280;48826;42.016;21.454;2022-12-04T00:48:26;99010.75;;;26.49;28.53
62789;BME280;48826;42.016;21.454;2022-12-04T00:50:52;99013.16;;;26.51;28.26
62789;BME280;48826;42.016;21.454;2022-12-04T00:53:18;99001.16;;;26.48;28.20
62789;BME280;48826;42.016;21.454;2022-12-04T00:55:44;99023.00;;;26.56;28.36
62789;BME280;48826;42.016;21.454;2022-12-04T00:58:10;99012.63;;;26.54;28.01
62789;BME280;48826;42.016;21.454;2022-12-04T01:00:38;99019.28;;;26.51;27.95
62789;BME280;48826;42.016;21.454;2022-12-04T01:03:04;99013.16;;;26.51;27.91
62789;BME280;48826;42.016;21.454;2022-12-04T01:05:30;99016.09;;;26.49;28.40
62789;BME280;48826;42.016;21.454;2022-12-04T01:07:56;99009.16;;;26.48;28.22
62789;BME280;48826;42.016;21.454;2022-12-04T01:10:22;99003.81;;;26.48;28.59
62789;BME280;48826;42.016;21.454;2022-12-04T01:12:48;99008.13;;;26.44;28.54
62789;BME280;48826;42.016;21.454;2022-12-04T01:15:14;99008.66;;;26.46;27.69
62789;BME280;48826;42.016;21.454;2022-12-04T01:17:40;98999.03;;;26.45;28.27
62789;BME280;48826;42.016;21.454;2022-12-04T01:20:06;99009.72;;;26.45;28.05
62789;BME280;48826;42.016;21.454;2022-12-04T01:22:31;99008.66;;;26.46;27.63
62789;BME280;48826;42.016;21.454;2022-12-04T01:24:57;98977.78;;;26.25;28.21
62789;BME280;48826;42.016;21.454;2022-12-04T01:27:23;98999.03;;;26.45;28.22
62789;BME280;48826;42.016;21.454;2022-12-04T01:29:49;98996.38;;;26.45;27.91
62789;BME280;48826;42.016;21.454;2022-12-04T01:32:14;98999.28;;;26.44;27.69
62789;BME280;48826;42.016;21.454;2022-12-04T01:34:40;99010.81;;;26.44;28.04
62789;BME280;48826;42.016;21.454;2022-12-04T01:37:06;99001.44;;;26.47;28.25
62789;BME280;48826;42.016;21.454;2022-12-04T01:39:31;98994.78;;;26.44;27.48
62789;BME280;48826;42.016;21.454;2022-12-04T01:41:59;98996.91;;;26.42;27.59
62789;BME280;48826;42.016;21.454;2022-12-04T01:44:25;98998.25;;;26.45;27.86
62789;BME280;48826;42.016;21.454;2022-12-04T01:46:56;98958.34;;;26.14;27.83
62789;BME280;48826;42.016;21.454;2022-12-04T01:49:33;99003.31;;;26.41;27.65
62789;BME280;48826;42.016;21.454;2022-12-04T01:52:08;98997.47;;;26.34;27.62
62789;BME280;48826;42.016;21.454;2022-12-04T01:54:41;99003.88;;;26.38;27.60
62789;BME280;48826;42.016;21.454;2022-12-04T01:57:12;99001.47;;;26.37;27.94
62789;BME280;48826;42.016;21.454;2022-12-04T02:00:08;98998.81;;;26.37;27.73
62789;BME280;48826;42.016;21.454;2022-12-04T02:02:36;98991.63;;;26.37;27.73
62789;BME280;48826;42.016;21.454;2022-12-04T02:05:05;98993.75;;;26.35;28.13
62789;BME280;48826;42.016;21.454;2022-12-04T02:07:31;98986.78;;;26.34;28.13
62789;BME280;48826;42.016;21.454;2022-12-04T02:09:57;98983.59;;;26.32;27.95
62789;BME280;48826;42.016;21.454;2022-12-04T02:15:51;98985.75;;;26.30;27.51
62789;BME280;48826;42.016;21.454;2022-12-04T02:18:39;98972.91;;;26.32;27.96
62789;BME280;48826;42.016;21.454;2022-12-04T02:21:31;98982.00;;;26.31;27.91
62789;BME280;48826;42.016;21.454;2022-12-04T02:30:10;98967.09;;;26.25;27.75
62789;BME280;48826;42.016;21.454;2022-12-04T02:32:51;98973.25;;;26.25;27.41
62789;BME280;48826;42.016;21.454;2022-12-04T02:37:54;98984.72;;;26.26;27.58
62789;BME280;48826;42.016;21.454;2022-12-04T02:40:28;98974.03;;;26.26;27.36
62789;BME280;48826;42.016;21.454;2022-12-04T02:45:50;98975.13;;;26.25;27.95
62789;BME280;48826;42.016;21.454;2022-12-04T02:48:19;98962.84;;;26.19;27.28
62789;BME280;48826;42.016;21.454;2022-12-04T02:50:49;98969.22;;;26.23;27.41
62789;BME280;48826;42.016;21.454;2022-12-04T02:53:24;98977.78;;;26.25;27.40
62789;BME280;48826;42.016;21.454;2022-12-04T02:55:55;98967.63;;;26.22;27.46
62789;BME280;48826;42.016;21.454;2022-12-04T02:58:29;98977.78;;;26.25;27.85
62789;BME280;48826;42.016;21.454;2022-12-04T03:00:58;98979.38;;;26.26;27.80
62789;BME280;48826;42.016;21.454;2022-12-04T03:03:27;98968.19;;;26.19;27.57
62789;BME280;48826;42.016;21.454;2022-12-04T03:06:02;98970.03;;;26.23;27.72
62789;BME280;48826;42.016;21.454;2022-12-04T03:08:39;98963.34;;;26.26;27.92
62789;BME280;48826;42.016;21.454;2022-12-04T03:11:06;98966.53;;;26.28;27.59
62789;BME280;48826;42.016;21.454;2022-12-04T03:18:38;98962.00;;;26.29;27.20
62789;BME280;48826;42.016;21.454;2022-12-04T03:21:09;98965.75;;;26.28;27.29
62789;BME280;48826;42.016;21.454;2022-12-04T03:23:54;98968.69;;;26.26;27.54
62789;BME280;48826;42.016;21.454;2022-12-04T03:26:30;98970.31;;;26.22;27.82
62789;BME280;48826;42.016;21.454;2022-12-04T03:31:42;98969.22;;;26.23;27.60
62789;BME280;48826;42.016;21.454;2022-12-04T03:34:10;98967.63;;;26.22;27.21
62789;BME280;48826;42.016;21.454;2022-12-04T03:36:44;98974.56;;;26.23;27.75
62789;BME280;48826;42.016;21.454;2022-12-04T03:39:37;98966.56;;;26.23;27.39
62789;BME280;48826;42.016;21.454;2022-12-04T03:42:32;98963.88;;;26.23;27.98
62789;BME280;48826;42.016;21.454;2022-12-04T03:45:09;98968.16;;;26.24;27.53
62789;BME280;48826;42.016;21.454;2022-12-04T03:48:05;98972.97;;;26.22;27.91
62789;BME280;48826;42.016;21.454;2022-12-04T03:50:41;98982.06;;;26.21;27.81
62789;BME280;48826;42.016;21.454;2022-12-04T03:53:19;98987.41;;;26.21;27.50
62789;BME280;48826;42.016;21.454;2022-12-04T03:56:05;98979.69;;;26.19;27.09
62789;BME280;48826;42.016;21.454;2022-12-04T03:58:36;98979.44;;;26.16;27.34
62789;BME280;48826;42.016;21.454;2022-12-04T04:01:04;98976.78;;;26.16;27.40
62789;BME280;48826;42.016;21.454;2022-12-04T04:03:38;98984.22;;;26.19;27.87
62789;BME280;48826;42.016;21.454;2022-12-04T04:06:16;98985.00;;;26.19;27.53
62789;BME280;48826;42.016;21.454;2022-12-04T04:08:46;98983.13;;;26.20;27.85
62789;BME280;48826;42.016;21.454;2022-12-04T04:11:17;98985.81;;;26.20;27.26
62789;BME280;48826;42.016;21.454;2022-12-04T04:13:52;98969.28;;;26.18;27.41
62789;BME280;48826;42.016;21.454;2022-12-04T04:16:43;98976.72;;;26.21;27.65
62789;BME280;48826;42.016;21.454;2022-12-04T04:19:29;98982.63;;;26.18;27.94
62789;BME280;48826;42.016;21.454;2022-12-04T04:22:18;98987.41;;;26.21;27.39
62789;BME280;48826;42.016;21.454;2022-12-04T04:25:06;98983.66;;;26.22;28.03
62789;BME280;48826;42.016;21.454;2022-12-04T04:27:34;98979.13;;;26.22;28.03
62789;BME280;48826;42.016;21.454;2022-12-04T04:30:00;98985.25;;;26.23;27.52
62789;BME280;48826;42.016;21.454;2022-12-04T04:32:37;98971.94;;;26.18;27.58
62789;BME280;48826;42.016;21.454;2022-12-04T04:45:50;98967.63;;;26.27;27.92
62789;BME280;48826;42.016;21.454;2022-12-04T04:48:26;98974.03;;;26.26;27.81
62789;BME280;48826;42.016;21.454;2022-12-04T04:50:53;98969.50;;;26.27;27.19
62789;BME280;48826;42.016;21.454;2022-12-04T04:53:27;98967.09;;;26.25;27.71
62789;BME280;48826;42.016;21.454;2022-12-04T04:55:55;98965.47;;;26.24;28.03
62789;BME280;48826;42.016;21.454;2022-12-04T04:58:21;98963.34;;;26.26;27.30
62789;BME280;48826;42.016;21.454;2022-12-04T05:01:01;98967.13;;;26.20;27.28
62789;BME280;48826;42.016;21.454;2022-12-04T05:03:29;98977.78;;;26.25;27.51
62789;BME280;48826;42.016;21.454;2022-12-04T05:05:55;98967.63;;;26.27;27.98
62789;BME280;48826;42.016;21.454;2022-12-04T05:08:21;98957.22;;;26.25;27.97
62789;BME280;48826;42.016;21.454;2022-12-04T05:10:47;98961.19;;;26.28;27.54
62789;BME280;48826;42.016;21.454;2022-12-04T05:13:13;98961.75;;;26.25;27.58
62789;BME280;48826;42.016;21.454;2022-12-04T05:15:39;98971.88;;;26.28;27.15
62789;BME280;48826;42.016;21.454;2022-12-04T05:18:05;98975.63;;;26.27;27.94
62789;BME280;48826;42.016;21.454;2022-12-04T05:20:31;98952.25;;;26.09;27.98
62789;BME280;48826;42.016;21.454;2022-12-04T05:22:57;98970.81;;;26.24;27.34
62789;BME280;48826;42.016;21.454;2022-12-04T05:25:22;98984.16;;;26.29;27.89
62789;BME280;48826;42.016;21.454;2022-12-04T05:27:48;98988.41;;;26.30;27.35
62789;BME280;48826;42.016;21.454;2022-12-04T05:30:15;98990.28;;;26.30;27.63
62789;BME280;48826;42.016;21.454;2022-12-04T05:32:40;98998.03;;;26.31;27.32
62789;BME280;48826;42.016;21.454;2022-12-04T05:35:06;98992.69;;;26.31;27.36
62789;BME280;48826;42.016;21.454;2022-12-04T05:37:35;98991.88;;;26.31;27.72
62789;BME280;48826;42.016;21.454;2022-12-04T05:40:03;98994.28;;;26.32;28.02
62789;BME280;48826;42.016;21.454;2022-12-04T05:42:28;99002.81;;;26.34;27.31
62789;BME280;48826;42.016;21.454;2022-12-04T05:44:54;98992.69;;;26.31;27.51
62789;BME280;48826;42.016;21.454;2022-12-04T05:47:19;98994.28;;;26.37;27.36
62789;BME280;48826;42.016;21.454;2022-12-04T05:49:45;98988.41;;;26.35;27.37
62789;BME280;48826;42.016;21.454;2022-12-04T05:52:11;99004.41;;;26.40;27.91
62789;BME280;48826;42.016;21.454;2022-12-04T05:54:36;98986.28;;;26.37;27.86
62789;BME280;48826;42.016;21.454;2022-12-04T05:57:02;98987.88;;;26.38;27.87
62789;BME280;48826;42.016;21.454;2022-12-04T05:59:28;98979.31;;;26.36;27.36
62789;BME280;48826;42.016;21.454;2022-12-04T06:01:53;98993.69;;;26.45;27.73
62789;BME280;48826;42.016;21.454;2022-12-04T06:04:19;98993.41;;;26.47;27.77
62789;BME280;48826;42.016;21.454;2022-12-04T06:06:44;98990.50;;;26.43;27.70
62789;BME280;48826;42.016;21.454;2022-12-04T06:09:10;98994.50;;;26.46;27.17
62789;BME280;48826;42.016;21.454;2022-12-04T06:11:38;99012.34;;;26.50;27.54
62789;BME280;48826;42.016;21.454;2022-12-04T06:14:09;99009.16;;;26.48;27.56
62789;BME280;48826;42.016;21.454;2022-12-04T06:16:37;99008.88;;;26.50;27.19
62789;BME280;48826;42.016;21.454;2022-12-04T06:19:06;99004.84;;;26.52;27.32
62789;BME280;48826;42.016;21.454;2022-12-04T06:21:34;99007.53;;;26.52;27.31
62789;BME280;48826;42.016;21.454;2022-12-04T06:24:00;99016.88;;;26.55;27.54
62789;BME280;48826;42.016;21.454;2022-12-04T06:26:25;99020.34;;;26.56;27.76
62789;BME280;48826;42.016;21.454;2022-12-04T06:28:53;99015.53;;;26.52;27.40
62789;BME280;48826;42.016;21.454;2022-12-04T06:31:19;99017.69;;;26.56;27.97
62789;BME280;48826;42.016;21.454;2022-12-04T06:33:45;99022.22;;;26.55;27.84
62789;BME280;48826;42.016;21.454;2022-12-04T06:36:13;99028.06;;;26.57;27.74
62789;BME280;48826;42.016;21.454;2022-12-04T06:38:39;99021.66;;;26.58;27.65
62789;BME280;48826;42.016;21.454;2022-12-04T06:41:06;99016.31;;;26.58;27.55
62789;BME280;48826;42.016;21.454;2022-12-04T06:43:33;99013.91;;;26.57;27.41
62789;BME280;48826;42.016;21.454;2022-12-04T06:46:10;99017.38;;;26.57;27.93
62789;BME280;48826;42.016;21.454;2022-12-04T06:48:36;99003.75;;;26.59;27.21
62789;BME280;48826;42.016;21.454;2022-12-04T06:51:04;99001.09;;;26.53;27.45
62789;BME280;48826;42.016;21.454;2022-12-04T06:53:31;99016.53;;;26.62;27.59
62789;BME280;48826;42.016;21.454;2022-12-04T06:55:58;99006.13;;;26.60;27.23
62789;BME280;48826;42.016;21.454;2022-12-04T06:58:24;98993.06;;;26.59;27.76
62789;BME280;48826;42.016;21.454;2022-12-04T07:00:50;99001.56;;;26.66;27.34
62789;BME280;48826;42.016;21.454;2022-12-04T07:03:16;99011.19;;;26.67;27.83
62789;BME280;48826;42.016;21.454;2022-12-04T07:05:41;99001.59;;;26.61;27.49
62789;BME280;48826;42.016;21.454;2022-12-04T07:08:07;99004.47;;;26.69;27.25
62789;BME280;48826;42.016;21.454;2022-12-04T07:10:34;98998.63;;;26.67;27.14
62789;BME280;48826;42.016;21.454;2022-12-04T07:13:01;99007.66;;;26.71;27.08
62789;BME280;48826;42.016;21.454;2022-12-04T07:15:26;99018.59;;;26.75;27.37
62789;BME280;48826;42.016;21.454;2022-12-04T07:17:52;99014.06;;;26.75;27.64
62789;BME280;48826;42.016;21.454;2022-12-04T07:20:17;99014.84;;;26.76;27.81
62789;BME280;48826;42.016;21.454;2022-12-04T07:22:43;99008.94;;;26.79;27.10
62789;BME280;48826;42.016;21.454;2022-12-04T07:25:08;99002.00;;;26.78;27.99
62789;BME280;48826;42.016;21.454;2022-12-04T07:27:34;99005.75;;;26.77;27.16
62789;BME280;48826;42.016;21.454;2022-12-04T07:29:59;98999.31;;;26.78;27.61
62789;BME280;48826;42.016;21.454;2022-12-04T07:32:25;98999.31;;;26.78;27.75
62789;BME280;48826;42.016;21.454;2022-12-04T07:34:50;99011.31;;;26.80;27.09
62789;BME280;48826;42.016;21.454;2022-12-04T07:37:16;99009.44;;;26.81;27.87
62789;BME280;48826;42.016;21.454;2022-12-04T07:39:43;99005.19;;;26.80;27.62
62789;BME280;48826;42.016;21.454;2022-12-04T07:42:09;98989.94;;;26.80;27.62
62789;BME280;48826;42.016;21.454;2022-12-04T07:44:34;99009.44;;;26.81;27.88
62789;BME280;48826;42.016;21.454;2022-12-04T07:47:01;99010.53;;;26.80;27.53
62789;BME280;48826;42.016;21.454;2022-12-04T07:49:26;99015.59;;;26.81;29.46
62789;BME280;48826;42.016;21.454;2022-12-04T07:51:52;99004.97;;;26.76;29.02
62789;BME280;48826;42.016;21.454;2022-12-04T07:54:17;98999.91;;;26.70;29.81
62789;BME280;48826;42.016;21.454;2022-12-04T07:56:43;99015.16;;;26.69;28.33
62789;BME280;48826;42.016;21.454;2022-12-04T07:59:08;99013.34;;;26.65;27.97
62789;BME280;48826;42.016;21.454;2022-12-04T08:01:34;99005.34;;;26.60;28.30
62789;BME280;48826;42.016;21.454;2022-12-04T08:04:00;98998.97;;;26.56;28.61
62789;BME280;48826;42.016;21.454;2022-12-04T08:06:28;99005.41;;;26.55;29.02
62789;BME280;48826;42.016;21.454;2022-12-04T08:08:54;99010.75;;;26.49;28.97
62789;BME280;48826;42.016;21.454;2022-12-04T08:11:23;99003.31;;;26.46;29.61
62789;BME280;48826;42.016;21.454;2022-12-04T08:14:00;99000.38;;;26.43;30.26
62789;BME280;48826;42.016;21.454;2022-12-04T08:16:27;99006.81;;;26.37;31.02
62789;BME280;48826;42.016;21.454;2022-12-04T08:18:54;98998.28;;;26.35;30.54
62789;BME280;48826;42.016;21.454;2022-12-04T08:21:21;98987.34;;;26.31;30.72
62789;BME280;48826;42.016;21.454;2022-12-04T08:23:49;98973.25;;;26.25;30.13
62789;BME280;48826;42.016;21.454;2022-12-04T08:26:16;98980.97;;;26.27;31.08
62789;BME280;48826;42.016;21.454;2022-12-04T08:28:41;98991.09;;;26.30;29.73
62789;BME280;48826;42.016;21.454;2022-12-04T08:31:13;98984.78;;;26.16;29.94
62789;BME280;48826;42.016;21.454;2022-12-04T08:33:42;98983.72;;;26.12;29.78
62789;BME280;48826;42.016;21.454;2022-12-04T08:36:10;98973.09;;;26.02;28.92
62789;BME280;48826;42.016;21.454;2022-12-04T08:38:36;98986.16;;;26.03;29.78
62789;BME280;48826;42.016;21.454;2022-12-04T08:41:04;98992.84;;;26.01;29.80
62789;BME280;48826;42.016;21.454;2022-12-04T08:43:30;98987.75;;;26.04;29.17
62789;BME280;48826;42.016;21.454;2022-12-04T08:46:01;98992.31;;;26.04;29.71
62789;BME280;48826;42.016;21.454;2022-12-04T08:48:28;98993.91;;;26.05;29.94
62789;BME280;48826;42.016;21.454;2022-12-04T08:50:54;98991.00;;;26.01;30.28
62789;BME280;48826;42.016;21.454;2022-12-04T08:53:20;98986.16;;;26.03;30.16
62789;BME280;48826;42.016;21.454;2022-12-04T08:55:46;98977.88;;;26.05;29.67
62789;BME280;48826;42.016;21.454;2022-12-04T08:58:12;98972.53;;;26.05;29.04
62789;BME280;48826;42.016;21.454;2022-12-04T09:00:37;98982.69;;;26.08;29.22
62789;BME280;48826;42.016;21.454;2022-12-04T09:03:03;98984.50;;;26.12;29.49
62789;BME280;48826;42.016;21.454;2022-12-04T09:05:29;98971.22;;;26.07;29.20
62789;BME280;48826;42.016;21.454;2022-12-04T09:07:55;98967.19;;;26.05;30.16
62789;BME280;48826;42.016;21.454;2022-12-04T09:10:21;98970.66;;;26.10;29.59
62789;BME280;48826;42.016;21.454;2022-12-04T09:12:47;98964.56;;;26.00;30.02
62789;BME280;48826;42.016;21.454;2022-12-04T09:15:12;98950.97;;;25.96;29.81
62789;BME280;48826;42.016;21.454;2022-12-04T09:17:38;98948.06;;;25.92;29.35
62789;BME280;48826;42.016;21.454;2022-12-04T09:20:05;98962.13;;;26.03;29.96
62789;BME280;48826;42.016;21.454;2022-12-04T09:22:33;98974.69;;;26.03;29.83
62789;BME280;48826;42.016;21.454;2022-12-04T09:24:58;98936.34;;;25.83;30.51
62789;BME280;48826;42.016;21.454;2022-12-04T09:27:24;98968.31;;;25.99;30.50
62789;BME280;48826;42.016;21.454;2022-12-04T09:29:49;98959.22;;;26.00;30.49
62789;BME280;48826;42.016;21.454;2022-12-04T09:32:15;98949.06;;;26.02;29.89
62789;BME280;48826;42.016;21.454;2022-12-04T09:34:41;98940.81;;;25.98;30.54
62789;BME280;48826;42.016;21.454;2022-12-04T09:37:06;98932.03;;;25.92;29.97
62789;BME280;48826;42.016;21.454;2022-12-04T09:39:32;98929.88;;;25.94;30.89
62789;BME280;48826;42.016;21.454;2022-12-04T09:42:34;98940.28;;;26.01;30.64
62789;BME280;48826;42.016;21.454;2022-12-04T09:47:22;98940.81;;;25.98;29.62
62789;BME280;48826;42.016;21.454;2022-12-04T09:57:56;98930.63;;;26.05;30.55
62789;BME280;48826;42.016;21.454;2022-12-04T10:00:23;98942.06;;;26.11;29.49
62789;BME280;48826;42.016;21.454;2022-12-04T10:02:58;98937.25;;;26.13;29.97
62789;BME280;48826;42.016;21.454;2022-12-04T10:10:41;98922.31;;;26.12;29.97
62789;BME280;48826;42.016;21.454;2022-12-04T10:19:18;98924.97;;;26.17;30.11
62789;BME280;48826;42.016;21.454;2022-12-04T10:24:53;98914.31;;;26.12;30.38
62789;BME280;48826;42.016;21.454;2022-12-04T10:27:24;98927.63;;;26.17;30.85
62789;BME280;48826;42.016;21.454;2022-12-04T10:29:55;98927.09;;;26.15;30.79
62789;BME280;48826;42.016;21.454;2022-12-04T10:32:42;98918.53;;;26.18;31.31
62789;BME280;48826;42.016;21.454;2022-12-04T10:35:26;98909.47;;;26.19;30.74
62789;BME280;48826;42.016;21.454;2022-12-04T10:38:01;98904.13;;;26.19;31.23
62789;BME280;48826;42.016;21.454;2022-12-04T10:40:35;98913.22;;;26.18;30.65
62789;BME280;48826;42.016;21.454;2022-12-04T10:43:13;98903.56;;;26.22;29.92
62789;BME280;48826;42.016;21.454;2022-12-04T10:45:39;98900.44;;;26.10;29.83
62789;BME280;48826;42.016;21.454;2022-12-04T10:48:05;98883.41;;;26.06;29.68
62789;BME280;48826;42.016;21.454;2022-12-04T10:50:32;98877.50;;;26.04;30.05
62789;BME280;48826;42.016;21.454;2022-12-04T10:52:59;98883.91;;;26.08;31.12
62789;BME280;48826;42.016;21.454;2022-12-04T10:55:30;98883.41;;;26.06;30.96
62789;BME280;48826;42.016;21.454;2022-12-04T10:57:56;98879.91;;;26.05;30.46
62789;BME280;48826;42.016;21.454;2022-12-04T11:00:23;98896.13;;;26.14;29.91
62789;BME280;48826;42.016;21.454;2022-12-04T11:02:52;98883.31;;;26.16;29.43
62789;BME280;48826;42.016;21.454;2022-12-04T11:05:32;98877.41;;;26.19;29.21
62789;BME280;48826;42.016;21.454;2022-12-04T11:08:02;98878.66;;;25.98;28.88
62789;BME280;48826;42.016;21.454;2022-12-04T11:13:16;98881.06;;;25.34;29.58
62789;BME280;48826;42.016;21.454;2022-12-04T11:16:02;98873.16;;;24.99;29.96
62789;BME280;48826;42.016;21.454;2022-12-04T11:18:33;98863.63;;;24.67;30.34
62789;BME280;48826;42.016;21.454;2022-12-04T11:21:06;98858.84;;;24.64;30.74
62789;BME280;48826;42.016;21.454;2022-12-04T11:23:46;98866.28;;;24.77;31.04
62789;BME280;48826;42.016;21.454;2022-12-04T11:26:12;98869.44;;;24.90;31.03
62789;BME280;48826;42.016;21.454;2022-12-04T11:28:39;98859.03;;;25.08;30.38
62789;BME280;48826;42.016;21.454;2022-12-04T11:31:16;98854.97;;;25.26;30.96
62789;BME280;48826;42.016;21.454;2022-12-04T11:34:19;98869.56;;;25.49;30.77
62789;BME280;48826;42.016;21.454;2022-12-04T11:36:51;98861.22;;;25.61;30.99
62789;BME280;48826;42.016;21.454;2022-12-04T11:39:28;98858.78;;;25.69;30.81
62789;BME280;48826;42.016;21.454;2022-12-04T11:42:22;98852.84;;;25.83;29.68
62789;BME280;48826;42.016;21.454;2022-12-04T11:45:02;98836.53;;;25.89;30.86
62789;BME280;48826;42.016;21.454;2022-12-04T11:47:30;98843.16;;;25.97;30.92
62789;BME280;48826;42.016;21.454;2022-12-04T11:53:14;98856.72;;;26.06;30.11
62789;BME280;48826;42.016;21.454;2022-12-04T11:56:12;98853.97;;;26.11;29.70
62789;BME280;48826;42.016;21.454;2022-12-04T12:09:32;98841.06;;;26.23;29.27
62789;BME280;48826;42.016;21.454;2022-12-04T12:12:28;98848.00;;;26.24;29.25
62789;BME280;48826;42.016;21.454;2022-12-04T12:15:04;98845.88;;;26.26;29.38
62789;BME280;48826;42.016;21.454;2022-12-04T12:17:39;98847.44;;;26.27;30.11
62789;BME280;48826;42.016;21.454;2022-12-04T12:20:12;98855.19;;;26.29;30.94
62789;BME280;48826;42.016;21.454;2022-12-04T12:33:22;98854.97;;;26.20;29.91
62789;BME280;48826;42.016;21.454;2022-12-04T12:38:21;98860.31;;;26.20;30.35
62789;BME280;48826;42.016;21.454;2022-12-04T12:41:04;98858.22;;;26.17;30.64
62789;BME280;48826;42.016;21.454;2022-12-04T12:43:33;98863.22;;;26.23;30.17
62789;BME280;48826;42.016;21.454;2022-12-04T12:46:22;98853.06;;;26.25;30.79
62789;BME280;48826;42.016;21.454;2022-12-04T12:51:48;98859.72;;;26.28;30.05
62789;BME280;48826;42.016;21.454;2022-12-04T12:56:56;98860.53;;;26.29;29.98
62789;BME280;48826;42.016;21.454;2022-12-04T12:59:26;98849.31;;;26.27;29.63
62789;BME280;48826;42.016;21.454;2022-12-04T13:02:00;98853.59;;;26.28;29.79
62789;BME280;48826;42.016;21.454;2022-12-04T13:04:42;98849.28;;;26.32;30.46
62789;BME280;48826;42.016;21.454;2022-12-04T13:07:19;98851.16;;;26.31;29.96
62789;BME280;48826;42.016;21.454;2022-12-04T13:09:59;98852.44;;;26.34;29.83
62789;BME280;48826;42.016;21.454;2022-12-04T13:12:27;98856.19;;;26.33;29.67
62789;BME280;48826;42.016;21.454;2022-12-04T13:14:53;98852.72;;;26.32;29.65
62789;BME280;48826;42.016;21.454;2022-12-04T13:17:33;98841.59;;;26.25;30.19
62789;BME280;48826;42.016;21.454;2022-12-04T13:20:02;98849.84;;;26.29;29.77
62789;BME280;48826;42.016;21.454;2022-12-04T13:41:30;98851.75;;;26.23;29.50
62789;BME280;48826;42.016;21.454;2022-12-04T13:43:59;98855.75;;;26.25;30.22
62789;BME280;48826;42.016;21.454;2022-12-04T13:48:54;98848.00;;;26.24;30.01
62789;BME280;48826;42.016;21.454;2022-12-04T13:51:38;98866.66;;;26.29;29.98
62789;BME280;48826;42.016;21.454;2022-12-04T13:56:36;98862.41;;;26.28;30.34
62789;BME280;48826;42.016;21.454;2022-12-04T13:59:20;98873.03;;;26.33;30.17
62789;BME280;48826;42.016;21.454;2022-12-04T14:01:48;98870.88;;;26.35;30.38
62789;BME280;48826;42.016;21.454;2022-12-04T14:05:10;98857.00;;;26.33;29.98
62789;BME280;48826;42.016;21.454;2022-12-04T14:09:50;98863.47;;;26.27;29.43
62789;BME280;48826;42.016;21.454;2022-12-04T14:12:25;98846.47;;;26.13;29.89
62789;BME280;48826;42.016;21.454;2022-12-04T14:14:54;98872.56;;;26.26;29.97
62789;BME280;48826;42.016;21.454;2022-12-04T14:17:35;98867.81;;;26.18;29.68
62789;BME280;48826;42.016;21.454;2022-12-04T14:20:07;98865.94;;;26.18;29.67
62789;BME280;48826;42.016;21.454;2022-12-04T14:22:45;98880.84;;;26.24;29.55
62789;BME280;48826;42.016;21.454;2022-12-04T14:30:18;98883.44;;;26.35;30.20
62789;BME280;48826;42.016;21.454;2022-12-04T14:32:48;98887.16;;;26.39;30.56
62789;BME280;48826;42.016;21.454;2022-12-04T14:35:16;98890.63;;;26.44;31.40
62789;BME280;48826;42.016;21.454;2022-12-04T14:38:03;98884.91;;;26.51;30.83
62789;BME280;48826;42.016;21.454;2022-12-04T14:40:43;98879.84;;;26.55;30.51
62789;BME280;48826;42.016;21.454;2022-12-04T14:43:20;98873.69;;;26.54;30.83
62789;BME280;48826;42.016;21.454;2022-12-04T14:46:14;98859.00;;;26.51;30.72
62789;BME280;48826;42.016;21.454;2022-12-04T14:52:27;98855.34;;;26.42;32.99
62789;BME280;48826;42.016;21.454;2022-12-04T14:57:59;98837.97;;;26.45;34.66
62789;BME280;48826;42.016;21.454;2022-12-04T15:00:50;98811.81;;;26.42;34.82
62789;BME280;48826;42.016;21.454;2022-12-04T15:03:17;98821.16;;;26.44;35.00
62789;BME280;48826;42.016;21.454;2022-12-04T15:05:43;98821.72;;;26.41;34.76
62789;BME280;48826;42.016;21.454;2022-12-04T15:08:11;98831.28;;;26.47;35.37
62789;BME280;48826;42.016;21.454;2022-12-04T15:10:38;98804.88;;;26.41;35.13
62789;BME280;48826;42.016;21.454;2022-12-04T15:13:28;98821.91;;;26.50;35.96
62789;BME280;48826;42.016;21.454;2022-12-04T15:15:54;98822.19;;;26.48;35.23
62789;BME280;48826;42.016;21.454;2022-12-04T15:18:20;98808.31;;;26.46;35.08
62789;BME280;48826;42.016;21.454;2022-12-04T15:26:00;98820.81;;;26.51;35.29